sensor_id;sensor_type;location;lat;lon;timestamp;temperature;humidity
7046;DHT22;3564;53.326;10.356;2022-12-07T00:01:27;6.20;99.90
7046;DHT22;3564;53.326;10.356;2022-12-07T00:03:55;6.30;99.90
7046;DHT22;3564;53.326;10.356;2022-12-07T00:06:51;6.30;99.90
7046;DHT22;3564;53.326;10.356;2022-12-07T00:09:18;6.30;99.90
7046;DHT22;3564;53.326;10.356;2022-12-07T00:11:51;6.30;99.90
7046;DHT22;3564;53.326;10.356;2022-12-07T00:14:18;6.30;99.90
7046;DHT22;3564;53.326;10.356;2022-12-07T00:16:45;6.30;99.90
7046;DHT22;3564;53.326;10.356;2022-12-07T00:19:12;6.40;99.90
7046;DHT22;3564;53.326;10.356;2022-12-07T00:21:38;6.40;99.90
7046;DHT22;3564;53.326;10.356;2022-12-07T00:24:05;6.40;99.90
7046;DHT22;3564;53.326;10.356;2022-12-07T00:26:34;6.40;99.90
7046;DHT22;3564;53.326;10.356;2022-12-07T00:29:03;6.40;99.90
7046;DHT22;3564;53.326;10.356;2022-12-07T00:31:32;6.50;99.90
7046;DHT22;3564;53.326;10.356;2022-12-07T00:33:58;6.60;99.90
7046;DHT22;3564;53.326;10.356;2022-12-07T00:36:26;6.60;99.90
7046;DHT22;3564;53.326;10.356;2022-12-07T00:38:54;6.60;99.90
7046;DHT22;3564;53.326;10.356;2022-12-07T00:41:22;6.70;99.90
7046;DHT22;3564;53.326;10.356;2022-12-07T00:43:49;6.70;99.90
7046;DHT22;3564;53.326;10.356;2022-12-07T00:46:16;6.70;99.90
7046;DHT22;3564;53.326;10.356;2022-12-07T00:48:52;6.70;99.90
7046;DHT22;3564;53.326;10.356;2022-12-07T00:51:21;6.70;99.90
7046;DHT22;3564;53.326;10.356;2022-12-07T00:53:47;6.70;99.90
7046;DHT22;3564;53.326;10.356;2022-12-07T00:56:15;6.70;99.90
7046;DHT22;3564;53.326;10.356;2022-12-07T00:58:41;6.80;99.90
7046;DHT22;3564;53.326;10.356;2022-12-07T01:01:08;6.80;99.90
7046;DHT22;3564;53.326;10.356;2022-12-07T01:03:35;6.80;99.90
7046;DHT22;3564;53.326;10.356;2022-12-07T01:06:01;6.80;99.90
7046;DHT22;3564;53.326;10.356;2022-12-07T01:08:28;6.80;99.90
7046;DHT22;3564;53.326;10.356;2022-12-07T01:11:06;6.80;99.90
7046;DHT22;3564;53.326;10.356;2022-12-07T01:13:33;6.70;99.90
7046;DHT22;3564;53.326;10.356;2022-12-07T01:16:01;6.70;99.90
7046;DHT22;3564;53.326;10.356;2022-12-07T01:18:29;6.60;99.90
7046;DHT22;3564;53.326;10.356;2022-12-07T01:21:12;6.60;99.90
7046;DHT22;3564;53.326;10.356;2022-12-07T01:23:42;6.60;99.90
7046;DHT22;3564;53.326;10.356;2022-12-07T01:26:11;6.60;99.90
7046;DHT22;3564;53.326;10.356;2022-12-07T01:28:37;6.50;99.90
7046;DHT22;3564;53.326;10.356;2022-12-07T01:31:05;6.50;99.90
7046;DHT22;3564;53.326;10.356;2022-12-07T01:33:34;6.50;99.90
7046;DHT22;3564;53.326;10.356;2022-12-07T01:36:04;6.50;99.90
7046;DHT22;3564;53.326;10.356;2022-12-07T01:38:32;6.50;99.90
7046;DHT22;3564;53.326;10.356;2022-12-07T01:40:58;6.50;99.90
7046;DHT22;3564;53.326;10.356;2022-12-07T01:43:27;6.50;99.90
7046;DHT22;3564;53.326;10.356;2022-12-07T01:45:54;6.50;99.90
7046;DHT22;3564;53.326;10.356;2022-12-07T01:48:27;6.50;99.90
7046;DHT22;3564;53.326;10.356;2022-12-07T01:50:54;6.50;99.90
7046;DHT22;3564;53.326;10.356;2022-12-07T01:53:25;6.50;99.90
7046;DHT22;3564;53.326;10.356;2022-12-07T01:55:52;6.50;99.90
7046;DHT22;3564;53.326;10.356;2022-12-07T01:58:18;6.60;99.90
7046;DHT22;3564;53.326;10.356;2022-12-07T02:00:44;6.60;99.90
7046;DHT22;3564;53.326;10.356;2022-12-07T02:03:31;6.60;99.90
7046;DHT22;3564;53.326;10.356;2022-12-07T02:05:58;6.60;99.90
7046;DHT22;3564;53.326;10.356;2022-12-07T02:08:25;6.50;99.90
7046;DHT22;3564;53.326;10.356;2022-12-07T02:10:51;6.50;99.90
7046;DHT22;3564;53.326;10.356;2022-12-07T02:13:19;6.60;99.90
7046;DHT22;3564;53.326;10.356;2022-12-07T02:19:33;6.60;99.90
7046;DHT22;3564;53.326;10.356;2022-12-07T02:22:23;6.70;99.90
7046;DHT22;3564;53.326;10.356;2022-12-07T02:27:56;6.70;99.90
7046;DHT22;3564;53.326;10.356;2022-12-07T02:30:29;6.70;99.90
7046;DHT22;3564;53.326;10.356;2022-12-07T02:33:04;6.80;99.90
7046;DHT22;3564;53.326;10.356;2022-12-07T02:35:39;6.80;99.90
7046;DHT22;3564;53.326;10.356;2022-12-07T02:38:19;6.80;99.90
7046;DHT22;3564;53.326;10.356;2022-12-07T02:40:55;6.90;99.90
7046;DHT22;3564;53.326;10.356;2022-12-07T02:43:48;6.90;99.90
7046;DHT22;3564;53.326;10.356;2022-12-07T02:46:17;6.90;99.90
7046;DHT22;3564;53.326;10.356;2022-12-07T02:48:45;6.90;99.90
7046;DHT22;3564;53.326;10.356;2022-12-07T02:51:12;6.90;99.90
7046;DHT22;3564;53.326;10.356;2022-12-07T02:53:40;6.90;99.90
7046;DHT22;3564;53.326;10.356;2022-12-07T02:56:19;6.90;99.90
7046;DHT22;3564;53.326;10.356;2022-12-07T03:07:11;6.80;99.90
7046;DHT22;3564;53.326;10.356;2022-12-07T03:13:07;6.80;99.90
7046;DHT22;3564;53.326;10.356;2022-12-07T03:16:02;6.80;99.90
7046;DHT22;3564;53.326;10.356;2022-12-07T03:18:32;6.80;99.90
7046;DHT22;3564;53.326;10.356;2022-12-07T03:21:02;6.70;99.90
7046;DHT22;3564;53.326;10.356;2022-12-07T03:23:32;6.70;99.90
7046;DHT22;3564;53.326;10.356;2022-12-07T03:26:01;6.70;99.90
7046;DHT22;3564;53.326;10.356;2022-12-07T03:28:33;6.70;99.90
7046;DHT22;3564;53.326;10.356;2022-12-07T03:31:05;6.70;99.90
7046;DHT22;3564;53.326;10.356;2022-12-07T03:33:57;6.70;99.90
7046;DHT22;3564;53.326;10.356;2022-12-07T03:36:31;6.70;99.90
7046;DHT22;3564;53.326;10.356;2022-12-07T03:39:14;6.80;99.90
7046;DHT22;3564;53.326;10.356;2022-12-07T03:41:43;6.70;99.90
7046;DHT22;3564;53.326;10.356;2022-12-07T03:44:08;6.70;99.90
7046;DHT22;3564;53.326;10.356;2022-12-07T03:46:44;6.80;99.90
7046;DHT22;3564;53.326;10.356;2022-12-07T03:49:23;6.70;99.90
7046;DHT22;3564;53.326;10.356;2022-12-07T03:54:37;6.70;99.90
7046;DHT22;3564;53.326;10.356;2022-12-07T03:57:05;6.70;99.90
7046;DHT22;3564;53.326;10.356;2022-12-07T03:59:32;6.70;99.90
7046;DHT22;3564;53.326;10.356;2022-12-07T04:02:04;6.70;99.90
7046;DHT22;3564;53.326;10.356;2022-12-07T04:04:30;6.70;99.90
7046;DHT22;3564;53.326;10.356;2022-12-07T04:06:56;6.70;99.90
7046;DHT22;3564;53.326;10.356;2022-12-07T04:09:21;6.70;99.90
7046;DHT22;3564;53.326;10.356;2022-12-07T04:11:47;6.70;99.90
7046;DHT22;3564;53.326;10.356;2022-12-07T04:14:13;6.70;99.90
7046;DHT22;3564;53.326;10.356;2022-12-07T04:19:11;6.60;99.90
7046;DHT22;3564;53.326;10.356;2022-12-07T04:21:37;6.60;99.90
7046;DHT22;3564;53.326;10.356;2022-12-07T04:24:03;6.60;99.90
7046;DHT22;3564;53.326;10.356;2022-12-07T04:26:29;6.70;99.90
7046;DHT22;3564;53.326;10.356;2022-12-07T04:28:54;6.70;99.90
7046;DHT22;3564;53.326;10.356;2022-12-07T04:31:20;6.70;99.90
7046;DHT22;3564;53.326;10.356;2022-12-07T04:33:45;6.70;99.90
7046;DHT22;3564;53.326;10.356;2022-12-07T04:36:11;6.70;99.90
7046;DHT22;3564;53.326;10.356;2022-12-07T04:38:36;6.60;99.90
7046;DHT22;3564;53.326;10.356;2022-12-07T04:41:09;6.70;99.90
7046;DHT22;3564;53.326;10.356;2022-12-07T04:43:35;6.60;99.90
7046;DHT22;3564;53.326;10.356;2022-12-07T04:46:01;6.60;99.90
7046;DHT22;3564;53.326;10.356;2022-12-07T04:48:28;6.60;99.90
7046;DHT22;3564;53.326;10.356;2022-12-07T04:50:54;6.50;99.90
7046;DHT22;3564;53.326;10.356;2022-12-07T04:53:20;6.50;99.90
7046;DHT22;3564;53.326;10.356;2022-12-07T04:55:45;6.50;99.90
7046;DHT22;3564;53.326;10.356;2022-12-07T04:58:12;6.50;99.90
7046;DHT22;3564;53.326;10.356;2022-12-07T05:00:38;6.50;99.90
7046;DHT22;3564;53.326;10.356;2022-12-07T05:03:05;6.40;99.90
7046;DHT22;3564;53.326;10.356;2022-12-07T05:05:30;6.50;99.90
7046;DHT22;3564;53.326;10.356;2022-12-07T05:07:56;6.40;99.90
7046;DHT22;3564;53.326;10.356;2022-12-07T05:10:22;6.50;99.90
7046;DHT22;3564;53.326;10.356;2022-12-07T05:12:47;6.40;99.90
7046;DHT22;3564;53.326;10.356;2022-12-07T05:15:14;6.50;99.90
7046;DHT22;3564;53.326;10.356;2022-12-07T05:17:40;6.40;99.90
7046;DHT22;3564;53.326;10.356;2022-12-07T05:20:06;6.40;99.90
7046;DHT22;3564;53.326;10.356;2022-12-07T05:22:32;6.40;99.90
7046;DHT22;3564;53.326;10.356;2022-12-07T05:24:58;6.40;99.90
7046;DHT22;3564;53.326;10.356;2022-12-07T05:27:23;6.40;99.90
7046;DHT22;3564;53.326;10.356;2022-12-07T05:29:52;6.40;99.90
7046;DHT22;3564;53.326;10.356;2022-12-07T05:32:17;6.40;99.90
7046;DHT22;3564;53.326;10.356;2022-12-07T05:34:43;6.40;99.90
7046;DHT22;3564;53.326;10.356;2022-12-07T05:37:09;6.50;99.90
7046;DHT22;3564;53.326;10.356;2022-12-07T05:39:34;6.50;99.90
7046;DHT22;3564;53.326;10.356;2022-12-07T05:42:00;6.50;99.90
7046;DHT22;3564;53.326;10.356;2022-12-07T05:44:39;6.40;99.90
7046;DHT22;3564;53.326;10.356;2022-12-07T05:47:05;6.40;99.90
7046;DHT22;3564;53.326;10.356;2022-12-07T05:49:31;6.40;99.90
7046;DHT22;3564;53.326;10.356;2022-12-07T05:51:57;6.40;99.90
7046;DHT22;3564;53.326;10.356;2022-12-07T05:54:22;6.40;99.90
7046;DHT22;3564;53.326;10.356;2022-12-07T05:56:48;6.40;99.90
7046;DHT22;3564;53.326;10.356;2022-12-07T05:59:14;6.40;99.90
7046;DHT22;3564;53.326;10.356;2022-12-07T06:01:53;6.40;99.90
7046;DHT22;3564;53.326;10.356;2022-12-07T06:04:20;6.40;99.90
7046;DHT22;3564;53.326;10.356;2022-12-07T06:06:46;6.40;99.90
7046;DHT22;3564;53.326;10.356;2022-12-07T06:09:12;6.30;99.90
7046;DHT22;3564;53.326;10.356;2022-12-07T06:11:38;6.30;99.90
7046;DHT22;3564;53.326;10.356;2022-12-07T06:14:23;6.30;99.90
7046;DHT22;3564;53.326;10.356;2022-12-07T06:16:48;6.30;99.90
7046;DHT22;3564;53.326;10.356;2022-12-07T06:19:14;6.30;99.90
7046;DHT22;3564;53.326;10.356;2022-12-07T06:21:40;6.30;99.90
7046;DHT22;3564;53.326;10.356;2022-12-07T06:24:06;6.30;99.90
7046;DHT22;3564;53.326;10.356;2022-12-07T06:26:31;6.30;99.90
7046;DHT22;3564;53.326;10.356;2022-12-07T06:28:57;6.30;99.90
7046;DHT22;3564;53.326;10.356;2022-12-07T06:31:23;6.20;99.90
7046;DHT22;3564;53.326;10.356;2022-12-07T06:33:48;6.20;99.90
7046;DHT22;3564;53.326;10.356;2022-12-07T06:36:14;6.10;99.90
7046;DHT22;3564;53.326;10.356;2022-12-07T06:38:40;6.10;99.90
7046;DHT22;3564;53.326;10.356;2022-12-07T06:41:05;6.10;99.90
7046;DHT22;3564;53.326;10.356;2022-12-07T06:43:32;6.10;99.90
7046;DHT22;3564;53.326;10.356;2022-12-07T06:46:00;6.10;99.90
7046;DHT22;3564;53.326;10.356;2022-12-07T06:48:26;6.00;99.90
7046;DHT22;3564;53.326;10.356;2022-12-07T06:50:51;6.00;99.90
7046;DHT22;3564;53.326;10.356;2022-12-07T06:53:17;6.00;99.90
7046;DHT22;3564;53.326;10.356;2022-12-07T06:55:42;6.00;99.90
7046;DHT22;3564;53.326;10.356;2022-12-07T06:58:08;5.90;99.90
7046;DHT22;3564;53.326;10.356;2022-12-07T07:00:33;5.90;99.90
7046;DHT22;3564;53.326;10.356;2022-12-07T07:03:00;5.80;99.90
7046;DHT22;3564;53.326;10.356;2022-12-07T07:05:26;5.80;99.90
7046;DHT22;3564;53.326;10.356;2022-12-07T07:07:52;5.80;99.90
7046;DHT22;3564;53.326;10.356;2022-12-07T07:10:19;5.80;99.90
7046;DHT22;3564;53.326;10.356;2022-12-07T07:12:44;5.80;99.90
7046;DHT22;3564;53.326;10.356;2022-12-07T07:15:10;5.80;99.90
7046;DHT22;3564;53.326;10.356;2022-12-07T07:17:37;5.80;99.90
7046;DHT22;3564;53.326;10.356;2022-12-07T07:20:03;5.80;99.90
7046;DHT22;3564;53.326;10.356;2022-12-07T07:22:29;5.80;99.90
7046;DHT22;3564;53.326;10.356;2022-12-07T07:24:55;5.80;99.90
7046;DHT22;3564;53.326;10.356;2022-12-07T07:27:21;5.80;99.90
7046;DHT22;3564;53.326;10.356;2022-12-07T07:29:46;5.80;99.90
7046;DHT22;3564;53.326;10.356;2022-12-07T07:32:12;5.80;99.90
7046;DHT22;3564;53.326;10.356;2022-12-07T07:34:37;5.80;99.90
7046;DHT22;3564;53.326;10.356;2022-12-07T07:37:03;5.80;99.90
7046;DHT22;3564;53.326;10.356;2022-12-07T07:39:29;5.80;99.90
7046;DHT22;3564;53.326;10.356;2022-12-07T07:41:54;5.80;99.90
7046;DHT22;3564;53.326;10.356;2022-12-07T07:44:20;5.70;99.90
7046;DHT22;3564;53.326;10.356;2022-12-07T07:46:45;5.70;99.90
7046;DHT22;3564;53.326;10.356;2022-12-07T07:49:11;5.70;99.90
7046;DHT22;3564;53.326;10.356;2022-12-07T07:51:36;5.70;99.90
7046;DHT22;3564;53.326;10.356;2022-12-07T07:54:02;5.70;99.90
7046;DHT22;3564;53.326;10.356;2022-12-07T07:56:28;5.70;99.90
7046;DHT22;3564;53.326;10.356;2022-12-07T07:58:54;5.70;99.90
7046;DHT22;3564;53.326;10.356;2022-12-07T08:01:20;5.70;99.90
7046;DHT22;3564;53.326;10.356;2022-12-07T08:03:48;5.70;99.90
7046;DHT22;3564;53.326;10.356;2022-12-07T08:06:14;5.80;99.90
7046;DHT22;3564;53.326;10.356;2022-12-07T08:08:40;5.80;99.90
7046;DHT22;3564;53.326;10.356;2022-12-07T08:11:06;5.80;99.90
7046;DHT22;3564;53.326;10.356;2022-12-07T08:13:32;5.90;99.90
7046;DHT22;3564;53.326;10.356;2022-12-07T08:15:58;5.90;99.90
7046;DHT22;3564;53.326;10.356;2022-12-07T08:18:28;5.90;99.90
7046;DHT22;3564;53.326;10.356;2022-12-07T08:20:59;5.90;99.90
7046;DHT22;3564;53.326;10.356;2022-12-07T08:23:26;5.90;99.90
7046;DHT22;3564;53.326;10.356;2022-12-07T08:25:51;5.90;99.90
7046;DHT22;3564;53.326;10.356;2022-12-07T08:28:17;5.90;99.90
7046;DHT22;3564;53.326;10.356;2022-12-07T08:30:43;5.90;99.90
7046;DHT22;3564;53.326;10.356;2022-12-07T08:33:09;5.90;99.90
7046;DHT22;3564;53.326;10.356;2022-12-07T08:35:35;5.90;99.90
7046;DHT22;3564;53.326;10.356;2022-12-07T08:38:01;5.90;99.90
7046;DHT22;3564;53.326;10.356;2022-12-07T08:40:30;5.90;99.90
7046;DHT22;3564;53.326;10.356;2022-12-07T08:42:55;5.90;99.90
7046;DHT22;3564;53.326;10.356;2022-12-07T08:45:22;5.90;99.90
7046;DHT22;3564;53.326;10.356;2022-12-07T08:48:04;5.90;99.90
7046;DHT22;3564;53.326;10.356;2022-12-07T08:50:31;5.90;99.90
7046;DHT22;3564;53.326;10.356;2022-12-07T08:52:59;6.00;99.90
7046;DHT22;3564;53.326;10.356;2022-12-07T08:55:25;6.00;99.90
7046;DHT22;3564;53.326;10.356;2022-12-07T08:57:52;6.00;99.90
7046;DHT22;3564;53.326;10.356;2022-12-07T09:00:19;6.00;99.90
7046;DHT22;3564;53.326;10.356;2022-12-07T09:02:45;6.10;99.90
7046;DHT22;3564;53.326;10.356;2022-12-07T09:05:12;6.10;99.90
7046;DHT22;3564;53.326;10.356;2022-12-07T09:07:42;6.20;99.90
7046;DHT22;3564;53.326;10.356;2022-12-07T09:10:09;6.20;99.90
7046;DHT22;3564;53.326;10.356;2022-12-07T09:12:35;6.20;99.90
7046;DHT22;3564;53.326;10.356;2022-12-07T09:15:00;6.30;99.90
7046;DHT22;3564;53.326;10.356;2022-12-07T09:17:26;6.30;99.90
7046;DHT22;3564;53.326;10.356;2022-12-07T09:19:51;6.30;99.90
7046;DHT22;3564;53.326;10.356;2022-12-07T09:22:17;6.40;99.90
7046;DHT22;3564;53.326;10.356;2022-12-07T09:24:42;6.40;99.90
7046;DHT22;3564;53.326;10.356;2022-12-07T09:27:09;6.50;99.90
7046;DHT22;3564;53.326;10.356;2022-12-07T09:29:35;6.50;99.90
7046;DHT22;3564;53.326;10.356;2022-12-07T09:32:00;6.60;99.90
7046;DHT22;3564;53.326;10.356;2022-12-07T09:34:26;6.60;99.90
7046;DHT22;3564;53.326;10.356;2022-12-07T09:36:52;6.60;99.90
7046;DHT22;3564;53.326;10.356;2022-12-07T09:39:17;6.60;99.90
7046;DHT22;3564;53.326;10.356;2022-12-07T09:41:44;6.70;99.90
7046;DHT22;3564;53.326;10.356;2022-12-07T09:44:20;6.70;99.90
7046;DHT22;3564;53.326;10.356;2022-12-07T09:46:47;6.70;99.90
7046;DHT22;3564;53.326;10.356;2022-12-07T09:49:24;6.70;99.90
7046;DHT22;3564;53.326;10.356;2022-12-07T09:54:35;6.70;99.90
7046;DHT22;3564;53.326;10.356;2022-12-07T09:57:02;6.70;99.90
7046;DHT22;3564;53.326;10.356;2022-12-07T09:59:27;6.80;99.90
7046;DHT22;3564;53.326;10.356;2022-12-07T10:01:53;6.80;99.90
7046;DHT22;3564;53.326;10.356;2022-12-07T10:04:22;6.80;99.90
7046;DHT22;3564;53.326;10.356;2022-12-07T10:06:49;6.80;99.90
7046;DHT22;3564;53.326;10.356;2022-12-07T10:09:18;6.90;99.90
7046;DHT22;3564;53.326;10.356;2022-12-07T10:12:10;6.80;99.90
7046;DHT22;3564;53.326;10.356;2022-12-07T10:14:38;6.80;99.90
7046;DHT22;3564;53.326;10.356;2022-12-07T10:17:41;6.80;99.90
7046;DHT22;3564;53.326;10.356;2022-12-07T10:23:03;6.80;99.90
7046;DHT22;3564;53.326;10.356;2022-12-07T10:25:45;6.80;99.90
7046;DHT22;3564;53.326;10.356;2022-12-07T10:28:16;6.90;99.90
7046;DHT22;3564;53.326;10.356;2022-12-07T10:30:57;6.90;99.90
7046;DHT22;3564;53.326;10.356;2022-12-07T10:33:34;6.90;99.90
7046;DHT22;3564;53.326;10.356;2022-12-07T10:39:15;7.00;99.90
7046;DHT22;3564;53.326;10.356;2022-12-07T10:44:45;7.00;99.90
7046;DHT22;3564;53.326;10.356;2022-12-07T10:52:51;7.20;99.90
7046;DHT22;3564;53.326;10.356;2022-12-07T10:55:49;7.30;99.90
7046;DHT22;3564;53.326;10.356;2022-12-07T11:01:29;7.30;99.90
7046;DHT22;3564;53.326;10.356;2022-12-07T11:04:29;7.30;99.90
7046;DHT22;3564;53.326;10.356;2022-12-07T11:12:29;7.30;99.90
7046;DHT22;3564;53.326;10.356;2022-12-07T11:15:12;7.40;99.90
7046;DHT22;3564;53.326;10.356;2022-12-07T11:18:09;7.30;99.90
7046;DHT22;3564;53.326;10.356;2022-12-07T11:20:51;7.30;99.90
7046;DHT22;3564;53.326;10.356;2022-12-07T11:23:42;7.30;99.90
7046;DHT22;3564;53.326;10.356;2022-12-07T11:26:32;7.30;99.90
7046;DHT22;3564;53.326;10.356;2022-12-07T11:31:56;7.40;99.90
7046;DHT22;3564;53.326;10.356;2022-12-07T11:35:02;7.30;99.90
7046;DHT22;3564;53.326;10.356;2022-12-07T11:37:49;7.30;99.90
7046;DHT22;3564;53.326;10.356;2022-12-07T11:45:42;7.20;99.90
7046;DHT22;3564;53.326;10.356;2022-12-07T11:48:14;7.20;99.90
7046;DHT22;3564;53.326;10.356;2022-12-07T11:50:48;7.20;99.90
7046;DHT22;3564;53.326;10.356;2022-12-07T11:53:21;7.30;99.90
7046;DHT22;3564;53.326;10.356;2022-12-07T12:01:15;7.40;99.90
7046;DHT22;3564;53.326;10.356;2022-12-07T12:06:37;7.40;99.90
7046;DHT22;3564;53.326;10.356;2022-12-07T12:14:54;7.40;99.90
7046;DHT22;3564;53.326;10.356;2022-12-07T12:20:42;7.40;99.90
7046;DHT22;3564;53.326;10.356;2022-12-07T12:25:55;7.30;99.90
7046;DHT22;3564;53.326;10.356;2022-12-07T12:31:35;7.30;99.90
7046;DHT22;3564;53.326;10.356;2022-12-07T12:34:04;7.30;99.90
7046;DHT22;3564;53.326;10.356;2022-12-07T12:39:15;7.40;99.90
7046;DHT22;3564;53.326;10.356;2022-12-07T12:46:57;7.50;99.90
7046;DHT22;3564;53.326;10.356;2022-12-07T12:51:54;7.60;99.90
7046;DHT22;3564;53.326;10.356;2022-12-07T12:59:31;7.60;99.90
7046;DHT22;3564;53.326;10.356;2022-12-07T13:02:16;7.60;99.90
7046;DHT22;3564;53.326;10.356;2022-12-07T13:13:25;7.80;99.90
7046;DHT22;3564;53.326;10.356;2022-12-07T13:15:51;7.80;99.90
7046;DHT22;3564;53.326;10.356;2022-12-07T13:23:54;7.80;99.90
7046;DHT22;3564;53.326;10.356;2022-12-07T13:31:41;7.90;99.90
7046;DHT22;3564;53.326;10.356;2022-12-07T13:34:36;7.80;99.90
7046;DHT22;3564;53.326;10.356;2022-12-07T13:37:32;7.80;99.90
7046;DHT22;3564;53.326;10.356;2022-12-07T13:40:00;7.90;99.90
7046;DHT22;3564;53.326;10.356;2022-12-07T13:42:33;7.80;99.90
7046;DHT22;3564;53.326;10.356;2022-12-07T13:45:13;7.80;99.90
7046;DHT22;3564;53.326;10.356;2022-12-07T13:47:53;7.80;99.70
7046;DHT22;3564;53.326;10.356;2022-12-07T13:50:30;7.80;99.60
7046;DHT22;3564;53.326;10.356;2022-12-07T13:52:58;7.80;99.70
7046;DHT22;3564;53.326;10.356;2022-12-07T13:55:25;7.80;99.80
7046;DHT22;3564;53.326;10.356;2022-12-07T13:57:54;7.80;99.90
7046;DHT22;3564;53.326;10.356;2022-12-07T14:00:24;7.80;99.90
7046;DHT22;3564;53.326;10.356;2022-12-07T14:05:32;7.80;99.80
7046;DHT22;3564;53.326;10.356;2022-12-07T14:10:39;7.80;99.80
7046;DHT22;3564;53.326;10.356;2022-12-07T14:13:34;7.80;99.80
7046;DHT22;3564;53.326;10.356;2022-12-07T14:16:22;7.80;99.60
7046;DHT22;3564;53.326;10.356;2022-12-07T14:18:46;7.80;99.60
7046;DHT22;3564;53.326;10.356;2022-12-07T14:21:16;7.80;99.70
7046;DHT22;3564;53.326;10.356;2022-12-07T14:24:16;7.80;99.70
7046;DHT22;3564;53.326;10.356;2022-12-07T14:26:47;7.80;99.80
7046;DHT22;3564;53.326;10.356;2022-12-07T14:29:34;7.80;99.80
7046;DHT22;3564;53.326;10.356;2022-12-07T14:32:26;7.80;99.90
7046;DHT22;3564;53.326;10.356;2022-12-07T14:35:29;7.80;99.90
7046;DHT22;3564;53.326;10.356;2022-12-07T14:37:48;7.70;99.90
7046;DHT22;3564;53.326;10.356;2022-12-07T14:40:26;7.70;99.90
7046;DHT22;3564;53.326;10.356;2022-12-07T14:43:25;7.70;99.90
7046;DHT22;3564;53.326;10.356;2022-12-07T14:45:50;7.70;99.90
7046;DHT22;3564;53.326;10.356;2022-12-07T14:48:16;7.70;99.90
7046;DHT22;3564;53.326;10.356;2022-12-07T14:50:50;7.60;99.90
7046;DHT22;3564;53.326;10.356;2022-12-07T14:53:39;7.60;99.90
7046;DHT22;3564;53.326;10.356;2022-12-07T14:56:06;7.60;99.90
7046;DHT22;3564;53.326;10.356;2022-12-07T14:58:31;7.60;99.90
7046;DHT22;3564;53.326;10.356;2022-12-07T15:00:58;7.60;99.90
7046;DHT22;3564;53.326;10.356;2022-12-07T15:03:24;7.60;99.90
7046;DHT22;3564;53.326;10.356;2022-12-07T15:05:49;7.60;99.90
7046;DHT22;3564;53.326;10.356;2022-12-07T15:08:15;7.60;99.90
7046;DHT22;3564;53.326;10.356;2022-12-07T15:10:41;7.60;99.90
7046;DHT22;3564;53.326;10.356;2022-12-07T15:13:07;7.50;99.90
7046;DHT22;3564;53.326;10.356;2022-12-07T15:15:52;7.50;99.90
7046;DHT22;3564;53.326;10.356;2022-12-07T15:18:18;7.50;99.90
7046;DHT22;3564;53.326;10.356;2022-12-07T15:20:45;7.40;99.90
7046;DHT22;3564;53.326;10.356;2022-12-07T15:23:11;7.50;99.90
7046;DHT22;3564;53.326;10.356;2022-12-07T15:25:41;7.50;99.90
7046;DHT22;3564;53.326;10.356;2022-12-07T15:28:06;7.50;99.90
7046;DHT22;3564;53.326;10.356;2022-12-07T15:30:32;7.50;99.90
7046;DHT22;3564;53.326;10.356;2022-12-07T15:32:57;7.50;99.90
7046;DHT22;3564;53.326;10.356;2022-12-07T15:35:23;7.50;99.80
7046;DHT22;3564;53.326;10.356;2022-12-07T15:37:49;7.50;99.80
7046;DHT22;3564;53.326;10.356;2022-12-07T15:40:14;7.50;99.80
7046;DHT22;3564;53.326;10.356;2022-12-07T15:42:40;7.50;99.70
7046;DHT22;3564;53.326;10.356;2022-12-07T15:45:08;7.40;99.60
7046;DHT22;3564;53.326;10.356;2022-12-07T15:47:42;7.40;99.60
7046;DHT22;3564;53.326;10.356;2022-12-07T15:50:11;7.40;99.60
7046;DHT22;3564;53.326;10.356;2022-12-07T15:52:38;7.40;99.60
7046;DHT22;3564;53.326;10.356;2022-12-07T15:55:04;7.30;99.60
7046;DHT22;3564;53.326;10.356;2022-12-07T15:57:31;7.30;99.70
7046;DHT22;3564;53.326;10.356;2022-12-07T15:59:57;7.30;99.70
7046;DHT22;3564;53.326;10.356;2022-12-07T16:02:24;7.30;99.70
7046;DHT22;3564;53.326;10.356;2022-12-07T16:04:50;7.30;99.60
7046;DHT22;3564;53.326;10.356;2022-12-07T16:07:16;7.30;99.50
7046;DHT22;3564;53.326;10.356;2022-12-07T16:09:43;7.20;99.50
7046;DHT22;3564;53.326;10.356;2022-12-07T16:12:10;7.20;99.40
7046;DHT22;3564;53.326;10.356;2022-12-07T16:14:36;7.20;99.40
7046;DHT22;3564;53.326;10.356;2022-12-07T16:17:03;7.20;99.40
7046;DHT22;3564;53.326;10.356;2022-12-07T16:19:31;7.10;99.30
7046;DHT22;3564;53.326;10.356;2022-12-07T16:21:56;7.10;99.30
7046;DHT22;3564;53.326;10.356;2022-12-07T16:24:22;7.10;99.30
7046;DHT22;3564;53.326;10.356;2022-12-07T16:26:48;7.10;99.30
7046;DHT22;3564;53.326;10.356;2022-12-07T16:29:17;7.00;99.10
7046;DHT22;3564;53.326;10.356;2022-12-07T16:31:43;7.00;99.00
7046;DHT22;3564;53.326;10.356;2022-12-07T16:34:09;6.90;98.80
7046;DHT22;3564;53.326;10.356;2022-12-07T16:36:34;6.90;98.80
7046;DHT22;3564;53.326;10.356;2022-12-07T16:39:00;6.80;98.60
7046;DHT22;3564;53.326;10.356;2022-12-07T16:41:27;6.80;98.70
7046;DHT22;3564;53.326;10.356;2022-12-07T16:43:53;6.70;98.80
7046;DHT22;3564;53.326;10.356;2022-12-07T16:46:19;6.70;98.90
7046;DHT22;3564;53.326;10.356;2022-12-07T16:48:44;6.70;99.10
7046;DHT22;3564;53.326;10.356;2022-12-07T16:51:12;6.60;99.10
7046;DHT22;3564;53.326;10.356;2022-12-07T16:53:39;6.60;99.20
7046;DHT22;3564;53.326;10.356;2022-12-07T16:56:13;6.60;99.40
7046;DHT22;3564;53.326;10.356;2022-12-07T16:58:40;6.50;99.50
7046;DHT22;3564;53.326;10.356;2022-12-07T17:01:20;6.60;99.70
7046;DHT22;3564;53.326;10.356;2022-12-07T17:03:48;6.50;99.90
7046;DHT22;3564;53.326;10.356;2022-12-07T17:06:22;6.60;99.90
7046;DHT22;3564;53.326;10.356;2022-12-07T17:08:49;6.50;99.90
7046;DHT22;3564;53.326;10.356;2022-12-07T17:11:21;6.50;99.90
7046;DHT22;3564;53.326;10.356;2022-12-07T17:13:47;6.50;99.80
7046;DHT22;3564;53.326;10.356;2022-12-07T17:16:31;6.50;99.50
7046;DHT22;3564;53.326;10.356;2022-12-07T17:18:58;6.50;99.40
7046;DHT22;3564;53.326;10.356;2022-12-07T17:21:24;6.40;99.30
7046;DHT22;3564;53.326;10.356;2022-12-07T17:23:50;6.40;99.10
7046;DHT22;3564;53.326;10.356;2022-12-07T17:26:19;6.30;98.80
7046;DHT22;3564;53.326;10.356;2022-12-07T17:28:46;6.30;98.80
7046;DHT22;3564;53.326;10.356;2022-12-07T17:31:14;6.20;98.90
7046;DHT22;3564;53.326;10.356;2022-12-07T17:33:39;6.20;99.30
7046;DHT22;3564;53.326;10.356;2022-12-07T17:36:20;6.20;99.70
7046;DHT22;3564;53.326;10.356;2022-12-07T17:38:47;6.20;99.80
7046;DHT22;3564;53.326;10.356;2022-12-07T17:41:16;6.20;99.90
7046;DHT22;3564;53.326;10.356;2022-12-07T17:44:01;6.20;99.90
7046;DHT22;3564;53.326;10.356;2022-12-07T17:46:27;6.20;99.90
7046;DHT22;3564;53.326;10.356;2022-12-07T17:48:56;6.20;99.90
7046;DHT22;3564;53.326;10.356;2022-12-07T17:51:22;6.20;99.90
7046;DHT22;3564;53.326;10.356;2022-12-07T17:54:06;6.20;99.90
7046;DHT22;3564;53.326;10.356;2022-12-07T17:56:32;6.20;99.90
7046;DHT22;3564;53.326;10.356;2022-12-07T17:58:57;6.20;99.90
7046;DHT22;3564;53.326;10.356;2022-12-07T18:01:23;6.20;99.90
7046;DHT22;3564;53.326;10.356;2022-12-07T18:03:48;6.20;99.90
7046;DHT22;3564;53.326;10.356;2022-12-07T18:06:14;6.20;99.90
7046;DHT22;3564;53.326;10.356;2022-12-07T18:08:39;6.20;99.90
7046;DHT22;3564;53.326;10.356;2022-12-07T18:11:05;6.20;99.90
7046;DHT22;3564;53.326;10.356;2022-12-07T18:13:32;6.20;99.90
7046;DHT22;3564;53.326;10.356;2022-12-07T18:16:12;6.20;99.90
7046;DHT22;3564;53.326;10.356;2022-12-07T18:18:39;6.20;99.90
7046;DHT22;3564;53.326;10.356;2022-12-07T18:21:12;6.10;99.90